sensor_id;sensor_type;location;lat;lon;timestamp;temperature;humidity
30300;DHT22;17110;52.602;12.998;2023-05-16T00:00:57;13.10;99.90
30300;DHT22;17110;52.602;12.998;2023-05-16T00:03:23;13.10;99.90
30300;DHT22;17110;52.602;12.998;2023-05-16T00:05:49;13.10;99.90
30300;DHT22;17110;52.602;12.998;2023-05-16T00:08:15;13.00;99.90
30300;DHT22;17110;52.602;12.998;2023-05-16T00:10:40;13.00;99.90
30300;DHT22;17110;52.602;12.998;2023-05-16T00:13:06;13.00;99.90
30300;DHT22;17110;52.602;12.998;2023-05-16T00:15:32;13.00;99.90
30300;DHT22;17110;52.602;12.998;2023-05-16T00:17:59;12.90;99.90
30300;DHT22;17110;52.602;12.998;2023-05-16T00:20:25;12.80;99.90
30300;DHT22;17110;52.602;12.998;2023-05-16T00:22:50;12.80;99.90
30300;DHT22;17110;52.602;12.998;2023-05-16T00:25:16;12.80;99.90
30300;DHT22;17110;52.602;12.998;2023-05-16T00:27:42;12.70;99.90
30300;DHT22;17110;52.602;12.998;2023-05-16T00:30:08;12.60;99.90
30300;DHT22;17110;52.602;12.998;2023-05-16T00:32:34;12.60;99.90
30300;DHT22;17110;52.602;12.998;2023-05-16T00:35:02;12.50;99.90
30300;DHT22;17110;52.602;12.998;2023-05-16T00:37:27;12.50;99.90
30300;DHT22;17110;52.602;12.998;2023-05-16T00:39:53;12.40;99.90
30300;DHT22;17110;52.602;12.998;2023-05-16T00:42:19;12.30;99.90
30300;DHT22;17110;52.602;12.998;2023-05-16T00:44:45;12.30;99.90
30300;DHT22;17110;52.602;12.998;2023-05-16T00:47:10;12.20;99.90
30300;DHT22;17110;52.602;12.998;2023-05-16T00:49:36;12.10;99.90
30300;DHT22;17110;52.602;12.998;2023-05-16T00:52:04;12.10;99.90
30300;DHT22;17110;52.602;12.998;2023-05-16T00:54:30;12.00;99.90
30300;DHT22;17110;52.602;12.998;2023-05-16T00:56:56;11.90;99.90
30300;DHT22;17110;52.602;12.998;2023-05-16T00:59:22;11.80;99.90
30300;DHT22;17110;52.602;12.998;2023-05-16T01:01:49;11.70;99.90
30300;DHT22;17110;52.602;12.998;2023-05-16T01:04:17;11.80;99.90
30300;DHT22;17110;52.602;12.998;2023-05-16T01:06:43;11.70;99.90
30300;DHT22;17110;52.602;12.998;2023-05-16T01:09:10;11.70;99.90
30300;DHT22;17110;52.602;12.998;2023-05-16T01:11:50;11.70;99.90
30300;DHT22;17110;52.602;12.998;2023-05-16T01:14:24;11.70;99.90
30300;DHT22;17110;52.602;12.998;2023-05-16T01:16:58;11.60;99.90
30300;DHT22;17110;52.602;12.998;2023-05-16T01:19:38;11.60;99.90
30300;DHT22;17110;52.602;12.998;2023-05-16T01:22:14;11.60;99.90
30300;DHT22;17110;52.602;12.998;2023-05-16T01:24:50;11.40;99.90
30300;DHT22;17110;52.602;12.998;2023-05-16T01:27:23;11.40;99.90
30300;DHT22;17110;52.602;12.998;2023-05-16T01:29:54;11.30;99.90
30300;DHT22;17110;52.602;12.998;2023-05-16T01:32:20;11.20;99.90
30300;DHT22;17110;52.602;12.998;2023-05-16T01:34:46;11.20;99.90
30300;DHT22;17110;52.602;12.998;2023-05-16T01:37:17;11.10;99.90
30300;DHT22;17110;52.602;12.998;2023-05-16T01:39:48;11.00;99.90
30300;DHT22;17110;52.602;12.998;2023-05-16T01:42:18;10.90;99.90
30300;DHT22;17110;52.602;12.998;2023-05-16T01:44:52;10.80;99.90
30300;DHT22;17110;52.602;12.998;2023-05-16T01:47:21;10.80;99.90
30300;DHT22;17110;52.602;12.998;2023-05-16T01:49:53;10.80;99.90
30300;DHT22;17110;52.602;12.998;2023-05-16T01:52:26;10.80;99.90
30300;DHT22;17110;52.602;12.998;2023-05-16T01:54:56;10.80;99.90
30300;DHT22;17110;52.602;12.998;2023-05-16T01:57:24;10.90;99.90
30300;DHT22;17110;52.602;12.998;2023-05-16T01:59:52;11.00;99.90
30300;DHT22;17110;52.602;12.998;2023-05-16T02:02:18;11.10;99.90
30300;DHT22;17110;52.602;12.998;2023-05-16T02:04:43;11.20;99.90
30300;DHT22;17110;52.602;12.998;2023-05-16T02:07:09;11.20;99.90
30300;DHT22;17110;52.602;12.998;2023-05-16T02:09:36;11.20;99.90
30300;DHT22;17110;52.602;12.998;2023-05-16T02:12:02;11.30;99.90
30300;DHT22;17110;52.602;12.998;2023-05-16T02:14:28;11.20;99.90
30300;DHT22;17110;52.602;12.998;2023-05-16T02:16:56;11.20;99.90
30300;DHT22;17110;52.602;12.998;2023-05-16T02:19:22;11.10;99.90
30300;DHT22;17110;52.602;12.998;2023-05-16T02:21:47;11.10;99.90
30300;DHT22;17110;52.602;12.998;2023-05-16T02:24:13;11.10;99.90
30300;DHT22;17110;52.602;12.998;2023-05-16T02:26:38;11.20;99.90
30300;DHT22;17110;52.602;12.998;2023-05-16T02:29:04;11.20;99.90
30300;DHT22;17110;52.602;12.998;2023-05-16T02:31:31;11.20;99.90
30300;DHT22;17110;52.602;12.998;2023-05-16T02:33:59;11.20;99.90
30300;DHT22;17110;52.602;12.998;2023-05-16T02:36:25;11.20;99.90
30300;DHT22;17110;52.602;12.998;2023-05-16T02:38:51;11.20;99.90
30300;DHT22;17110;52.602;12.998;2023-05-16T02:41:17;11.10;99.90
30300;DHT22;17110;52.602;12.998;2023-05-16T02:43:43;11.10;99.90
30300;DHT22;17110;52.602;12.998;2023-05-16T02:46:20;11.10;99.90
30300;DHT22;17110;52.602;12.998;2023-05-16T02:48:45;11.10;99.90
30300;DHT22;17110;52.602;12.998;2023-05-16T02:51:12;11.20;99.90
30300;DHT22;17110;52.602;12.998;2023-05-16T02:53:38;11.10;99.90
30300;DHT22;17110;52.602;12.998;2023-05-16T02:56:04;11.20;99.90
30300;DHT22;17110;52.602;12.998;2023-05-16T02:58:30;11.20;99.90
30300;DHT22;17110;52.602;12.998;2023-05-16T03:00:56;11.20;99.90
30300;DHT22;17110;52.602;12.998;2023-05-16T03:03:22;11.10;99.90
30300;DHT22;17110;52.602;12.998;2023-05-16T03:05:47;11.20;99.90
30300;DHT22;17110;52.602;12.998;2023-05-16T03:08:14;11.10;99.90
30300;DHT22;17110;52.602;12.998;2023-05-16T03:10:40;11.10;99.90
30300;DHT22;17110;52.602;12.998;2023-05-16T03:13:05;11.10;99.90
30300;DHT22;17110;52.602;12.998;2023-05-16T03:15:31;11.10;99.90
30300;DHT22;17110;52.602;12.998;2023-05-16T03:17:57;11.10;99.90
30300;DHT22;17110;52.602;12.998;2023-05-16T03:20:22;11.10;99.90
30300;DHT22;17110;52.602;12.998;2023-05-16T03:22:49;11.10;99.90
30300;DHT22;17110;52.602;12.998;2023-05-16T03:25:16;11.00;99.90
30300;DHT22;17110;52.602;12.998;2023-05-16T03:27:41;11.00;99.90
30300;DHT22;17110;52.602;12.998;2023-05-16T03:30:08;11.00;99.90
30300;DHT22;17110;52.602;12.998;2023-05-16T03:32:34;11.10;99.90
30300;DHT22;17110;52.602;12.998;2023-05-16T03:35:00;11.10;99.90
30300;DHT22;17110;52.602;12.998;2023-05-16T03:37:26;11.10;99.90
30300;DHT22;17110;52.602;12.998;2023-05-16T03:39:52;11.10;99.90
30300;DHT22;17110;52.602;12.998;2023-05-16T03:42:18;11.10;99.90
30300;DHT22;17110;52.602;12.998;2023-05-16T03:44:44;11.10;99.90
30300;DHT22;17110;52.602;12.998;2023-05-16T03:47:10;11.10;99.90
30300;DHT22;17110;52.602;12.998;2023-05-16T03:49:36;11.00;99.90
30300;DHT22;17110;52.602;12.998;2023-05-16T03:52:01;10.90;99.90
30300;DHT22;17110;52.602;12.998;2023-05-16T03:54:27;10.90;99.90
30300;DHT22;17110;52.602;12.998;2023-05-16T03:56:53;10.80;99.90
30300;DHT22;17110;52.602;12.998;2023-05-16T03:59:20;10.80;99.90
30300;DHT22;17110;52.602;12.998;2023-05-16T04:01:45;10.80;99.90
30300;DHT22;17110;52.602;12.998;2023-05-16T04:04:11;10.80;99.90
30300;DHT22;17110;52.602;12.998;2023-05-16T04:06:37;10.90;99.90
30300;DHT22;17110;52.602;12.998;2023-05-16T04:09:02;10.70;99.90
30300;DHT22;17110;52.602;12.998;2023-05-16T04:11:28;10.70;99.90
30300;DHT22;17110;52.602;12.998;2023-05-16T04:13:54;10.80;99.90
30300;DHT22;17110;52.602;12.998;2023-05-16T04:16:21;10.80;99.90
30300;DHT22;17110;52.602;12.998;2023-05-16T04:18:46;10.80;99.90
30300;DHT22;17110;52.602;12.998;2023-05-16T04:21:12;10.80;99.90
30300;DHT22;17110;52.602;12.998;2023-05-16T04:23:37;10.80;99.90
30300;DHT22;17110;52.602;12.998;2023-05-16T04:26:03;10.80;99.90
30300;DHT22;17110;52.602;12.998;2023-05-16T04:28:29;10.80;99.90
30300;DHT22;17110;52.602;12.998;2023-05-16T04:30:54;10.90;99.90
30300;DHT22;17110;52.602;12.998;2023-05-16T04:33:21;10.80;99.90
30300;DHT22;17110;52.602;12.998;2023-05-16T04:35:47;10.70;99.90
30300;DHT22;17110;52.602;12.998;2023-05-16T04:38:12;10.80;99.90
30300;DHT22;17110;52.602;12.998;2023-05-16T04:40:38;10.80;99.90
30300;DHT22;17110;52.602;12.998;2023-05-16T04:43:04;10.80;99.90
30300;DHT22;17110;52.602;12.998;2023-05-16T04:45:29;10.80;99.90
30300;DHT22;17110;52.602;12.998;2023-05-16T04:47:55;10.80;99.90
30300;DHT22;17110;52.602;12.998;2023-05-16T04:50:22;10.80;99.90
30300;DHT22;17110;52.602;12.998;2023-05-16T04:52:47;10.80;99.90
30300;DHT22;17110;52.602;12.998;2023-05-16T04:55:13;10.70;99.90
30300;DHT22;17110;52.602;12.998;2023-05-16T04:57:39;10.80;99.90
30300;DHT22;17110;52.602;12.998;2023-05-16T05:00:06;10.80;99.90
30300;DHT22;17110;52.602;12.998;2023-05-16T05:02:32;10.80;99.90
30300;DHT22;17110;52.602;12.998;2023-05-16T05:04:57;10.80;99.90
30300;DHT22;17110;52.602;12.998;2023-05-16T05:07:24;10.80;99.90
30300;DHT22;17110;52.602;12.998;2023-05-16T05:09:50;10.80;99.90
30300;DHT22;17110;52.602;12.998;2023-05-16T05:12:15;10.90;99.90
30300;DHT22;17110;52.602;12.998;2023-05-16T05:14:41;10.90;99.90
30300;DHT22;17110;52.602;12.998;2023-05-16T05:17:07;10.90;99.90
30300;DHT22;17110;52.602;12.998;2023-05-16T05:19:32;11.00;99.90
30300;DHT22;17110;52.602;12.998;2023-05-16T05:21:58;11.00;99.90
30300;DHT22;17110;52.602;12.998;2023-05-16T05:24:25;11.00;99.90
30300;DHT22;17110;52.602;12.998;2023-05-16T05:26:50;11.10;99.90
30300;DHT22;17110;52.602;12.998;2023-05-16T05:29:16;10.90;99.90
30300;DHT22;17110;52.602;12.998;2023-05-16T05:31:42;10.90;99.90
30300;DHT22;17110;52.602;12.998;2023-05-16T05:34:07;11.00;99.90
30300;DHT22;17110;52.602;12.998;2023-05-16T05:36:33;10.90;99.90
30300;DHT22;17110;52.602;12.998;2023-05-16T05:38:59;11.00;99.90
30300;DHT22;17110;52.602;12.998;2023-05-16T05:41:26;10.90;99.90
30300;DHT22;17110;52.602;12.998;2023-05-16T05:43:51;10.90;99.90
30300;DHT22;17110;52.602;12.998;2023-05-16T05:46:17;10.90;99.90
30300;DHT22;17110;52.602;12.998;2023-05-16T05:48:42;11.00;99.90
30300;DHT22;17110;52.602;12.998;2023-05-16T05:51:08;11.10;99.90
30300;DHT22;17110;52.602;12.998;2023-05-16T05:53:34;11.00;99.90
30300;DHT22;17110;52.602;12.998;2023-05-16T05:56:00;11.10;99.90
30300;DHT22;17110;52.602;12.998;2023-05-16T05:58:26;11.10;99.90
30300;DHT22;17110;52.602;12.998;2023-05-16T06:00:52;11.10;99.90
30300;DHT22;17110;52.602;12.998;2023-05-16T06:03:18;11.00;99.90
30300;DHT22;17110;52.602;12.998;2023-05-16T06:05:43;11.00;99.90
30300;DHT22;17110;52.602;12.998;2023-05-16T06:08:09;11.00;99.90
30300;DHT22;17110;52.602;12.998;2023-05-16T06:10:34;11.00;99.90
30300;DHT22;17110;52.602;12.998;2023-05-16T06:13:00;11.10;99.90
30300;DHT22;17110;52.602;12.998;2023-05-16T06:15:27;11.20;99.90
30300;DHT22;17110;52.602;12.998;2023-05-16T06:17:53;11.20;99.90
30300;DHT22;17110;52.602;12.998;2023-05-16T06:20:18;11.40;99.90
30300;DHT22;17110;52.602;12.998;2023-05-16T06:22:44;11.40;99.90
30300;DHT22;17110;52.602;12.998;2023-05-16T06:25:09;11.30;99.90
30300;DHT22;17110;52.602;12.998;2023-05-16T06:27:35;11.30;99.90
30300;DHT22;17110;52.602;12.998;2023-05-16T06:30:01;11.20;99.90
30300;DHT22;17110;52.602;12.998;2023-05-16T06:32:28;11.20;99.90
30300;DHT22;17110;52.602;12.998;2023-05-16T06:34:54;11.40;99.90
30300;DHT22;17110;52.602;12.998;2023-05-16T06:37:19;11.40;99.90
30300;DHT22;17110;52.602;12.998;2023-05-16T06:39:45;11.20;99.90
30300;DHT22;17110;52.602;12.998;2023-05-16T06:42:11;11.00;99.90
30300;DHT22;17110;52.602;12.998;2023-05-16T06:44:36;11.00;99.90
30300;DHT22;17110;52.602;12.998;2023-05-16T06:47:02;11.00;99.90
30300;DHT22;17110;52.602;12.998;2023-05-16T06:49:29;11.00;99.90
30300;DHT22;17110;52.602;12.998;2023-05-16T06:51:55;11.20;99.90
30300;DHT22;17110;52.602;12.998;2023-05-16T06:54:21;11.30;99.90
30300;DHT22;17110;52.602;12.998;2023-05-16T06:56:46;11.30;99.90
30300;DHT22;17110;52.602;12.998;2023-05-16T06:59:12;11.40;99.90
30300;DHT22;17110;52.602;12.998;2023-05-16T07:01:38;11.30;99.90
30300;DHT22;17110;52.602;12.998;2023-05-16T07:04:03;11.50;99.90
30300;DHT22;17110;52.602;12.998;2023-05-16T07:06:30;11.40;99.90
30300;DHT22;17110;52.602;12.998;2023-05-16T07:08:56;11.50;99.90
30300;DHT22;17110;52.602;12.998;2023-05-16T07:11:22;11.50;99.90
30300;DHT22;17110;52.602;12.998;2023-05-16T07:13:47;11.70;99.90
30300;DHT22;17110;52.602;12.998;2023-05-16T07:16:13;11.80;99.90
30300;DHT22;17110;52.602;12.998;2023-05-16T07:18:39;11.70;99.90
30300;DHT22;17110;52.602;12.998;2023-05-16T07:21:04;11.50;99.90
30300;DHT22;17110;52.602;12.998;2023-05-16T07:23:31;11.40;99.90
30300;DHT22;17110;52.602;12.998;2023-05-16T07:25:57;11.20;99.90
30300;DHT22;17110;52.602;12.998;2023-05-16T07:28:23;11.10;99.90
30300;DHT22;17110;52.602;12.998;2023-05-16T07:30:48;11.20;99.90
30300;DHT22;17110;52.602;12.998;2023-05-16T07:33:14;11.40;99.90
30300;DHT22;17110;52.602;12.998;2023-05-16T07:35:40;11.30;99.90
30300;DHT22;17110;52.602;12.998;2023-05-16T07:38:05;11.20;99.90
30300;DHT22;17110;52.602;12.998;2023-05-16T07:40:32;11.30;99.90
30300;DHT22;17110;52.602;12.998;2023-05-16T07:42:58;11.30;99.90
30300;DHT22;17110;52.602;12.998;2023-05-16T07:45:23;11.30;99.90
30300;DHT22;17110;52.602;12.998;2023-05-16T07:47:49;11.40;99.90
30300;DHT22;17110;52.602;12.998;2023-05-16T07:50:15;11.30;99.90
30300;DHT22;17110;52.602;12.998;2023-05-16T07:52:40;11.40;99.90
30300;DHT22;17110;52.602;12.998;2023-05-16T07:55:07;11.40;99.90
30300;DHT22;17110;52.602;12.998;2023-05-16T07:57:34;11.50;99.90
30300;DHT22;17110;52.602;12.998;2023-05-16T08:00:00;11.50;99.90
30300;DHT22;17110;52.602;12.998;2023-05-16T08:02:25;11.50;99.90
30300;DHT22;17110;52.602;12.998;2023-05-16T08:04:51;11.70;99.90
30300;DHT22;17110;52.602;12.998;2023-05-16T08:07:17;11.80;99.90
30300;DHT22;17110;52.602;12.998;2023-05-16T08:09:42;12.00;99.90
30300;DHT22;17110;52.602;12.998;2023-05-16T08:12:08;11.90;99.90
30300;DHT22;17110;52.602;12.998;2023-05-16T08:14:35;12.00;99.90
30300;DHT22;17110;52.602;12.998;2023-05-16T08:17:01;12.00;99.90
30300;DHT22;17110;52.602;12.998;2023-05-16T08:19:27;12.10;99.90
30300;DHT22;17110;52.602;12.998;2023-05-16T08:21:52;12.30;99.90
30300;DHT22;17110;52.602;12.998;2023-05-16T08:24:18;12.40;99.90
30300;DHT22;17110;52.602;12.998;2023-05-16T08:26:44;12.50;99.90
30300;DHT22;17110;52.602;12.998;2023-05-16T08:29:09;12.80;99.90
30300;DHT22;17110;52.602;12.998;2023-05-16T08:31:36;12.60;99.90
30300;DHT22;17110;52.602;12.998;2023-05-16T08:34:02;12.50;99.90
30300;DHT22;17110;52.602;12.998;2023-05-16T08:36:27;12.40;99.90
30300;DHT22;17110;52.602;12.998;2023-05-16T08:38:53;12.20;99.90
30300;DHT22;17110;52.602;12.998;2023-05-16T08:41:19;12.10;99.90
30300;DHT22;17110;52.602;12.998;2023-05-16T08:43:45;12.00;99.90
30300;DHT22;17110;52.602;12.998;2023-05-16T08:46:10;11.90;99.90
30300;DHT22;17110;52.602;12.998;2023-05-16T08:48:40;11.70;99.90
30300;DHT22;17110;52.602;12.998;2023-05-16T08:51:07;11.70;99.90
30300;DHT22;17110;52.602;12.998;2023-05-16T08:53:39;11.80;99.90
30300;DHT22;17110;52.602;12.998;2023-05-16T08:56:08;11.90;99.90
30300;DHT22;17110;52.602;12.998;2023-05-16T08:58:34;11.80;99.90
30300;DHT22;17110;52.602;12.998;2023-05-16T09:01:01;11.90;99.90
30300;DHT22;17110;52.602;12.998;2023-05-16T09:03:26;11.80;99.90
30300;DHT22;17110;52.602;12.998;2023-05-16T09:05:53;11.90;99.90
30300;DHT22;17110;52.602;12.998;2023-05-16T09:08:19;11.90;99.90
30300;DHT22;17110;52.602;12.998;2023-05-16T09:10:45;11.80;99.90
30300;DHT22;17110;52.602;12.998;2023-05-16T09:13:10;11.90;99.90
30300;DHT22;17110;52.602;12.998;2023-05-16T09:15:36;11.80;99.90
30300;DHT22;17110;52.602;12.998;2023-05-16T09:18:01;11.80;99.90
30300;DHT22;17110;52.602;12.998;2023-05-16T09:20:27;11.90;99.90
30300;DHT22;17110;52.602;12.998;2023-05-16T09:22:56;11.90;99.90
30300;DHT22;17110;52.602;12.998;2023-05-16T09:25:23;12.00;99.90
30300;DHT22;17110;52.602;12.998;2023-05-16T09:27:52;12.00;99.90
30300;DHT22;17110;52.602;12.998;2023-05-16T09:30:20;11.90;99.90
30300;DHT22;17110;52.602;12.998;2023-05-16T09:32:46;11.90;99.90
30300;DHT22;17110;52.602;12.998;2023-05-16T09:35:14;12.00;99.90
30300;DHT22;17110;52.602;12.998;2023-05-16T09:37:43;12.00;99.90
30300;DHT22;17110;52.602;12.998;2023-05-16T09:40:11;12.20;99.90
30300;DHT22;17110;52.602;12.998;2023-05-16T09:42:37;12.00;99.90
30300;DHT22;17110;52.602;12.998;2023-05-16T09:45:04;12.10;99.90
30300;DHT22;17110;52.602;12.998;2023-05-16T09:47:30;12.40;99.90
30300;DHT22;17110;52.602;12.998;2023-05-16T09:49:55;12.70;99.90
30300;DHT22;17110;52.602;12.998;2023-05-16T09:52:21;13.10;99.90
30300;DHT22;17110;52.602;12.998;2023-05-16T09:54:47;13.30;99.90
30300;DHT22;17110;52.602;12.998;2023-05-16T09:57:18;13.10;99.90
30300;DHT22;17110;52.602;12.998;2023-05-16T09:59:44;13.10;99.90
30300;DHT22;17110;52.602;12.998;2023-05-16T10:02:10;12.80;99.90
30300;DHT22;17110;52.602;12.998;2023-05-16T10:04:37;12.50;99.90
30300;DHT22;17110;52.602;12.998;2023-05-16T10:07:03;12.20;99.90
30300;DHT22;17110;52.602;12.998;2023-05-16T10:09:31;12.10;99.90
30300;DHT22;17110;52.602;12.998;2023-05-16T10:12:00;12.00;99.90
30300;DHT22;17110;52.602;12.998;2023-05-16T10:14:27;12.10;99.90
30300;DHT22;17110;52.602;12.998;2023-05-16T10:16:55;12.00;99.90
30300;DHT22;17110;52.602;12.998;2023-05-16T10:19:22;12.00;99.90
30300;DHT22;17110;52.602;12.998;2023-05-16T10:21:52;12.00;99.90
30300;DHT22;17110;52.602;12.998;2023-05-16T10:24:23;11.90;99.90
30300;DHT22;17110;52.602;12.998;2023-05-16T10:26:50;12.30;99.90
30300;DHT22;17110;52.602;12.998;2023-05-16T10:29:17;12.70;99.90
30300;DHT22;17110;52.602;12.998;2023-05-16T10:31:45;13.00;99.90
30300;DHT22;17110;52.602;12.998;2023-05-16T10:34:11;13.60;99.90
30300;DHT22;17110;52.602;12.998;2023-05-16T10:36:37;13.50;99.90
30300;DHT22;17110;52.602;12.998;2023-05-16T10:39:03;13.60;99.90
30300;DHT22;17110;52.602;12.998;2023-05-16T10:41:31;13.60;99.90
30300;DHT22;17110;52.602;12.998;2023-05-16T10:43:58;13.50;99.90
30300;DHT22;17110;52.602;12.998;2023-05-16T10:46:26;13.20;99.90
30300;DHT22;17110;52.602;12.998;2023-05-16T10:48:53;13.50;99.90
30300;DHT22;17110;52.602;12.998;2023-05-16T10:51:33;13.80;99.90
30300;DHT22;17110;52.602;12.998;2023-05-16T10:54:04;13.50;99.90
30300;DHT22;17110;52.602;12.998;2023-05-16T10:56:32;13.30;99.90
30300;DHT22;17110;52.602;12.998;2023-05-16T10:58:57;13.30;99.90
30300;DHT22;17110;52.602;12.998;2023-05-16T11:01:25;13.60;99.90
30300;DHT22;17110;52.602;12.998;2023-05-16T11:04:09;14.00;99.90
30300;DHT22;17110;52.602;12.998;2023-05-16T11:06:44;14.90;99.90
30300;DHT22;17110;52.602;12.998;2023-05-16T11:09:21;15.70;99.90
30300;DHT22;17110;52.602;12.998;2023-05-16T11:11:56;16.60;99.90
30300;DHT22;17110;52.602;12.998;2023-05-16T11:14:23;17.20;99.90
30300;DHT22;17110;52.602;12.998;2023-05-16T11:16:50;16.40;99.90
30300;DHT22;17110;52.602;12.998;2023-05-16T11:19:29;15.50;99.90
30300;DHT22;17110;52.602;12.998;2023-05-16T11:22:10;15.00;99.90
30300;DHT22;17110;52.602;12.998;2023-05-16T11:24:36;14.80;99.90
30300;DHT22;17110;52.602;12.998;2023-05-16T11:27:03;14.20;99.90
30300;DHT22;17110;52.602;12.998;2023-05-16T11:29:30;14.40;99.90
30300;DHT22;17110;52.602;12.998;2023-05-16T11:31:57;14.50;99.90
30300;DHT22;17110;52.602;12.998;2023-05-16T11:34:23;14.70;99.90
30300;DHT22;17110;52.602;12.998;2023-05-16T11:36:50;14.10;99.90
30300;DHT22;17110;52.602;12.998;2023-05-16T11:39:16;14.20;99.90
30300;DHT22;17110;52.602;12.998;2023-05-16T11:41:41;14.80;99.90
30300;DHT22;17110;52.602;12.998;2023-05-16T11:44:10;14.90;99.90
30300;DHT22;17110;52.602;12.998;2023-05-16T11:46:38;15.00;99.90
30300;DHT22;17110;52.602;12.998;2023-05-16T11:49:04;15.10;99.90
30300;DHT22;17110;52.602;12.998;2023-05-16T11:51:30;15.50;99.90
30300;DHT22;17110;52.602;12.998;2023-05-16T11:53:57;15.40;99.90
30300;DHT22;17110;52.602;12.998;2023-05-16T11:56:24;15.50;99.90
30300;DHT22;17110;52.602;12.998;2023-05-16T11:58:50;16.40;99.90
30300;DHT22;17110;52.602;12.998;2023-05-16T12:01:16;16.30;99.90
30300;DHT22;17110;52.602;12.998;2023-05-16T12:03:41;16.50;99.90
30300;DHT22;17110;52.602;12.998;2023-05-16T12:06:07;15.90;99.90
30300;DHT22;17110;52.602;12.998;2023-05-16T12:08:33;15.50;99.90
30300;DHT22;17110;52.602;12.998;2023-05-16T12:11:00;15.20;99.90
30300;DHT22;17110;52.602;12.998;2023-05-16T12:13:26;15.70;99.90
30300;DHT22;17110;52.602;12.998;2023-05-16T12:15:52;15.40;99.90
30300;DHT22;17110;52.602;12.998;2023-05-16T12:18:18;15.20;99.90
30300;DHT22;17110;52.602;12.998;2023-05-16T12:20:44;15.20;99.90
30300;DHT22;17110;52.602;12.998;2023-05-16T12:23:10;15.90;99.90
30300;DHT22;17110;52.602;12.998;2023-05-16T12:25:36;16.00;99.90
30300;DHT22;17110;52.602;12.998;2023-05-16T12:28:03;15.90;99.90
30300;DHT22;17110;52.602;12.998;2023-05-16T12:30:31;16.50;99.90
30300;DHT22;17110;52.602;12.998;2023-05-16T12:32:57;16.70;99.90
30300;DHT22;17110;52.602;12.998;2023-05-16T12:35:23;17.00;99.90
30300;DHT22;17110;52.602;12.998;2023-05-16T12:37:49;17.60;99.90
30300;DHT22;17110;52.602;12.998;2023-05-16T12:40:15;18.30;98.70
30300;DHT22;17110;52.602;12.998;2023-05-16T12:42:42;18.90;98.90
30300;DHT22;17110;52.602;12.998;2023-05-16T12:45:14;18.00;96.80
30300;DHT22;17110;52.602;12.998;2023-05-16T12:47:40;16.50;98.20
30300;DHT22;17110;52.602;12.998;2023-05-16T12:50:08;15.40;99.70
30300;DHT22;17110;52.602;12.998;2023-05-16T12:52:34;15.40;99.90
30300;DHT22;17110;52.602;12.998;2023-05-16T12:55:00;15.40;99.90
30300;DHT22;17110;52.602;12.998;2023-05-16T12:57:25;15.40;99.00
30300;DHT22;17110;52.602;12.998;2023-05-16T12:59:51;15.20;99.30
30300;DHT22;17110;52.602;12.998;2023-05-16T13:02:18;15.20;99.20
30300;DHT22;17110;52.602;12.998;2023-05-16T13:04:43;15.60;99.10
30300;DHT22;17110;52.602;12.998;2023-05-16T13:07:09;15.90;99.90
30300;DHT22;17110;52.602;12.998;2023-05-16T13:09:35;16.60;98.70
30300;DHT22;17110;52.602;12.998;2023-05-16T13:12:00;17.30;99.00
30300;DHT22;17110;52.602;12.998;2023-05-16T13:14:26;17.70;96.70
30300;DHT22;17110;52.602;12.998;2023-05-16T13:16:52;18.00;95.50
30300;DHT22;17110;52.602;12.998;2023-05-16T13:19:18;17.90;93.50
30300;DHT22;17110;52.602;12.998;2023-05-16T13:21:44;17.60;95.10
30300;DHT22;17110;52.602;12.998;2023-05-16T13:24:10;16.50;95.70
30300;DHT22;17110;52.602;12.998;2023-05-16T13:26:35;16.70;96.60
30300;DHT22;17110;52.602;12.998;2023-05-16T13:29:01;16.80;96.00
30300;DHT22;17110;52.602;12.998;2023-05-16T13:31:27;17.00;97.20
30300;DHT22;17110;52.602;12.998;2023-05-16T13:33:52;17.80;95.40
30300;DHT22;17110;52.602;12.998;2023-05-16T13:36:19;18.00;94.10
30300;DHT22;17110;52.602;12.998;2023-05-16T13:38:45;18.00;94.40
30300;DHT22;17110;52.602;12.998;2023-05-16T13:41:10;18.00;93.20
30300;DHT22;17110;52.602;12.998;2023-05-16T13:43:36;17.90;93.20
30300;DHT22;17110;52.602;12.998;2023-05-16T13:46:02;17.80;94.30
30300;DHT22;17110;52.602;12.998;2023-05-16T13:48:27;17.90;95.70
30300;DHT22;17110;52.602;12.998;2023-05-16T13:50:53;18.40;94.30
30300;DHT22;17110;52.602;12.998;2023-05-16T13:53:20;18.80;92.90
30300;DHT22;17110;52.602;12.998;2023-05-16T13:55:45;19.20;92.40
30300;DHT22;17110;52.602;12.998;2023-05-16T13:58:11;19.10;91.50
30300;DHT22;17110;52.602;12.998;2023-05-16T14:00:37;18.50;90.10
30300;DHT22;17110;52.602;12.998;2023-05-16T14:03:02;18.40;91.70
30300;DHT22;17110;52.602;12.998;2023-05-16T14:05:28;18.10;91.60
30300;DHT22;17110;52.602;12.998;2023-05-16T14:07:54;18.00;91.40
30300;DHT22;17110;52.602;12.998;2023-05-16T14:10:21;17.70;92.30
30300;DHT22;17110;52.602;12.998;2023-05-16T14:12:47;17.90;93.00
30300;DHT22;17110;52.602;12.998;2023-05-16T14:15:13;18.30;93.70
30300;DHT22;17110;52.602;12.998;2023-05-16T14:17:38;18.50;91.50
30300;DHT22;17110;52.602;12.998;2023-05-16T14:20:05;18.50;91.20
30300;DHT22;17110;52.602;12.998;2023-05-16T14:22:31;18.60;91.50
30300;DHT22;17110;52.602;12.998;2023-05-16T14:24:56;18.50;90.60
30300;DHT22;17110;52.602;12.998;2023-05-16T14:27:23;18.10;88.20
30300;DHT22;17110;52.602;12.998;2023-05-16T14:29:49;17.80;89.70
30300;DHT22;17110;52.602;12.998;2023-05-16T14:32:14;18.10;91.20
30300;DHT22;17110;52.602;12.998;2023-05-16T14:34:40;18.40;90.60
30300;DHT22;17110;52.602;12.998;2023-05-16T14:37:06;19.00;87.50
30300;DHT22;17110;52.602;12.998;2023-05-16T14:39:31;18.40;85.80
30300;DHT22;17110;52.602;12.998;2023-05-16T14:41:57;18.10;87.30
30300;DHT22;17110;52.602;12.998;2023-05-16T14:44:24;17.90;87.40
30300;DHT22;17110;52.602;12.998;2023-05-16T14:46:49;18.00;87.00
30300;DHT22;17110;52.602;12.998;2023-05-16T14:49:15;18.00;87.10
30300;DHT22;17110;52.602;12.998;2023-05-16T14:51:41;18.10;88.20
30300;DHT22;17110;52.602;12.998;2023-05-16T14:54:06;17.50;86.10
30300;DHT22;17110;52.602;12.998;2023-05-16T14:56:32;17.90;86.90
30300;DHT22;17110;52.602;12.998;2023-05-16T14:58:57;17.10;83.50
30300;DHT22;17110;52.602;12.998;2023-05-16T15:01:24;17.50;88.00
30300;DHT22;17110;52.602;12.998;2023-05-16T15:03:50;17.40;85.80
30300;DHT22;17110;52.602;12.998;2023-05-16T15:06:16;17.00;87.00
30300;DHT22;17110;52.602;12.998;2023-05-16T15:08:41;16.60;87.10
30300;DHT22;17110;52.602;12.998;2023-05-16T15:11:07;16.30;87.70